createdAt,value
2017-11-10T00:01:11.051Z,6.80
2017-11-10T00:03:38.919Z,6.70
2017-11-10T00:06:06.789Z,6.70
2017-11-10T00:08:34.656Z,6.60
2017-11-10T00:11:02.523Z,6.60
2017-11-10T00:13:30.387Z,6.50
2017-11-10T00:15:58.259Z,6.60
2017-11-10T00:18:26.127Z,6.60
2017-11-10T00:20:53.991Z,6.60
2017-11-10T00:23:21.857Z,6.60
2017-11-10T00:25:49.726Z,6.70
2017-11-10T00:28:17.592Z,6.80
2017-11-10T00:30:45.458Z,6.90
2017-11-10T00:33:13.326Z,6.90
2017-11-10T00:35:41.195Z,6.90
2017-11-10T00:38:09.060Z,7.00
2017-11-10T00:40:36.927Z,7.00
2017-11-10T00:43:04.794Z,7.00
2017-11-10T00:45:32.662Z,7.10
2017-11-10T00:48:00.530Z,7.10
2017-11-10T00:50:28.398Z,7.10
2017-11-10T00:52:56.264Z,7.10
2017-11-10T00:55:24.132Z,7.10
2017-11-10T00:57:52.000Z,7.10
2017-11-10T01:00:19.871Z,7.10
2017-11-10T01:02:47.733Z,7.10
2017-11-10T01:05:15.601Z,7.10
2017-11-10T01:07:43.468Z,7.20
2017-11-10T01:10:11.336Z,7.20
2017-11-10T01:12:39.203Z,7.20
2017-11-10T01:15:07.070Z,7.20
2017-11-10T01:17:34.937Z,7.20
2017-11-10T01:20:02.804Z,7.20
2017-11-10T01:22:30.673Z,7.20
2017-11-10T01:24:58.540Z,7.30
2017-11-10T01:27:26.406Z,7.30
2017-11-10T01:29:54.275Z,7.30
2017-11-10T01:32:22.141Z,7.20
2017-11-10T01:34:50.009Z,7.20
2017-11-10T01:37:17.876Z,7.20
2017-11-10T01:39:45.743Z,7.20
2017-11-10T01:42:13.610Z,7.20
2017-11-10T01:44:41.479Z,7.20
2017-11-10T01:47:09.365Z,7.20
2017-11-10T01:49:40.081Z,7.30
2017-11-10T01:52:07.878Z,7.30
2017-11-10T01:54:36.532Z,7.30
2017-11-10T01:57:04.399Z,7.30
2017-11-10T01:59:32.268Z,7.30
2017-11-10T02:02:00.133Z,7.30
2017-11-10T02:04:28.001Z,7.30
2017-11-10T02:06:55.874Z,7.30
2017-11-10T02:09:23.737Z,7.40
2017-11-10T02:11:51.603Z,7.40
2017-11-10T02:14:19.470Z,7.40
2017-11-10T02:16:47.337Z,7.40
2017-11-10T02:19:15.216Z,7.40
2017-11-10T02:21:43.891Z,7.40
2017-11-10T02:24:11.752Z,7.40
2017-11-10T02:26:39.626Z,7.40
2017-11-10T02:29:07.514Z,7.30
2017-11-10T02:31:35.463Z,7.30
2017-11-10T02:34:03.432Z,7.20
2017-11-10T02:36:31.230Z,7.20
2017-11-10T02:38:59.884Z,7.20
2017-11-10T02:41:27.752Z,7.20
2017-11-10T02:43:55.619Z,7.20
2017-11-10T02:46:23.486Z,7.20
2017-11-10T02:48:51.354Z,7.20
2017-11-10T02:51:19.220Z,7.20
2017-11-10T02:53:47.088Z,7.20
2017-11-10T02:56:14.955Z,7.20
2017-11-10T02:58:42.823Z,7.20
2017-11-10T03:01:10.692Z,7.20
2017-11-10T03:03:38.557Z,7.20
2017-11-10T03:06:06.425Z,7.20
2017-11-10T03:08:34.292Z,7.20
2017-11-10T03:11:02.159Z,7.20
2017-11-10T03:13:30.026Z,7.20
2017-11-10T03:15:57.995Z,7.20
2017-11-10T03:18:25.863Z,7.10
2017-11-10T03:20:53.731Z,7.10
2017-11-10T03:23:21.603Z,7.20
2017-11-10T03:25:49.401Z,7.20
2017-11-10T03:28:18.465Z,7.20
2017-11-10T03:30:46.328Z,7.20
2017-11-10T03:33:14.196Z,7.20
2017-11-10T03:35:42.060Z,7.20
2017-11-10T03:38:09.937Z,7.20
2017-11-10T03:40:37.800Z,7.20
2017-11-10T03:43:05.664Z,7.20
2017-11-10T03:45:33.535Z,7.20
2017-11-10T03:48:01.397Z,7.10
2017-11-10T03:50:29.265Z,7.20
2017-11-10T03:52:57.131Z,7.10
2017-11-10T03:55:24.931Z,7.10
2017-11-10T03:57:53.584Z,7.00
2017-11-10T04:00:21.450Z,7.00
2017-11-10T04:02:49.318Z,7.00
2017-11-10T04:05:17.117Z,7.00
2017-11-10T04:07:45.772Z,6.90
2017-11-10T04:10:13.638Z,6.90
2017-11-10T04:12:41.504Z,6.90
2017-11-10T04:15:09.371Z,6.90
2017-11-10T04:17:37.238Z,6.90
2017-11-10T04:20:05.106Z,6.80
2017-11-10T04:22:32.966Z,6.80
2017-11-10T04:25:00.841Z,6.70
2017-11-10T04:27:28.709Z,6.70
2017-11-10T04:29:56.576Z,6.70
2017-11-10T04:32:24.444Z,6.70
2017-11-10T04:34:52.309Z,6.60
2017-11-10T04:37:20.176Z,6.60
2017-11-10T04:39:48.044Z,6.60
2017-11-10T04:42:15.912Z,6.40
2017-11-10T04:44:43.778Z,6.30
2017-11-10T04:47:11.646Z,6.30
2017-11-10T04:49:39.514Z,6.30
2017-11-10T04:52:07.381Z,6.30
2017-11-10T04:54:35.249Z,6.30
2017-11-10T04:57:03.116Z,6.30
2017-11-10T04:59:30.983Z,6.20
2017-11-10T05:01:58.851Z,6.30
2017-11-10T05:04:26.719Z,6.30
2017-11-10T05:06:54.586Z,6.30
2017-11-10T05:09:22.452Z,6.30
2017-11-10T05:11:50.326Z,6.40
2017-11-10T05:14:18.189Z,6.40
2017-11-10T05:16:48.440Z,6.50
2017-11-10T05:19:17.103Z,6.40
2017-11-10T05:21:45.885Z,6.40
2017-11-10T05:24:13.751Z,6.40
2017-11-10T05:26:41.619Z,6.50
2017-11-10T05:29:09.486Z,6.50
2017-11-10T05:31:37.457Z,6.50
2017-11-10T05:34:05.426Z,6.50
2017-11-10T05:36:33.396Z,6.50
2017-11-10T05:39:02.185Z,6.50
2017-11-10T05:41:30.061Z,6.60
2017-11-10T05:43:57.920Z,6.60
2017-11-10T05:46:25.792Z,6.60
2017-11-10T05:48:53.657Z,6.60
2017-11-10T05:51:21.522Z,6.60
2017-11-10T05:53:49.395Z,6.60
2017-11-10T05:56:17.256Z,6.60
2017-11-10T05:58:45.124Z,6.60
2017-11-10T06:01:12.997Z,6.60
2017-11-10T06:03:40.960Z,6.60
2017-11-10T06:06:08.828Z,6.60
2017-11-10T06:08:36.696Z,6.60
2017-11-10T06:11:04.562Z,6.50
2017-11-10T06:13:32.430Z,6.40
2017-11-10T06:16:00.297Z,6.40
2017-11-10T06:18:28.165Z,6.40
2017-11-10T06:20:56.031Z,6.40
2017-11-10T06:23:23.899Z,6.40
2017-11-10T06:25:51.766Z,6.40
2017-11-10T06:28:19.633Z,6.40
2017-11-10T06:30:47.501Z,6.40
2017-11-10T06:33:15.368Z,6.40
2017-11-10T06:35:43.231Z,6.40
2017-11-10T06:38:11.121Z,6.40
2017-11-10T06:40:38.978Z,6.30
2017-11-10T06:43:06.844Z,6.40
2017-11-10T06:45:34.709Z,6.50
2017-11-10T06:48:02.579Z,6.60
2017-11-10T06:50:30.448Z,6.50
2017-11-10T06:52:58.314Z,6.50
2017-11-10T06:55:26.180Z,6.50
2017-11-10T06:57:54.144Z,6.50
2017-11-10T07:00:22.014Z,6.50
2017-11-10T07:02:49.880Z,6.50
2017-11-10T07:05:17.748Z,6.60
2017-11-10T07:07:45.615Z,6.60
2017-11-10T07:10:13.481Z,6.50
2017-11-10T07:12:41.450Z,6.50
2017-11-10T07:15:09.317Z,6.50
2017-11-10T07:17:37.184Z,6.60
2017-11-10T07:20:05.052Z,6.60
2017-11-10T07:22:32.919Z,6.60
2017-11-10T07:25:00.794Z,6.50
2017-11-10T07:27:28.657Z,6.50
2017-11-10T07:29:56.521Z,6.60
2017-11-10T07:32:24.314Z,6.70
2017-11-10T07:34:52.153Z,6.70
2017-11-10T07:37:20.020Z,6.70
2017-11-10T07:39:47.888Z,6.60
2017-11-10T07:42:15.754Z,6.70
2017-11-10T07:44:43.623Z,6.70
2017-11-10T07:47:11.490Z,6.70
2017-11-10T07:49:39.359Z,6.80
2017-11-10T07:52:07.225Z,6.80
2017-11-10T07:54:35.091Z,6.90
2017-11-10T07:57:02.959Z,6.80
2017-11-10T07:59:30.827Z,6.90
2017-11-10T08:01:58.696Z,6.90
2017-11-10T08:04:26.560Z,7.00
2017-11-10T08:06:54.430Z,7.00
2017-11-10T08:09:22.296Z,7.00
2017-11-10T08:11:50.163Z,7.10
2017-11-10T08:14:18.031Z,7.10
2017-11-10T08:16:45.897Z,7.10
2017-11-10T08:19:13.766Z,7.10
2017-11-10T08:21:41.632Z,7.10
2017-11-10T08:24:09.502Z,7.10
2017-11-10T08:26:37.367Z,7.10
2017-11-10T08:29:05.235Z,7.10
2017-11-10T08:31:33.103Z,7.10
2017-11-10T08:34:00.969Z,7.20
2017-11-10T08:36:28.836Z,7.20
2017-11-10T08:38:56.703Z,7.30
2017-11-10T08:41:24.571Z,7.30
2017-11-10T08:43:52.439Z,7.20
2017-11-10T08:46:20.306Z,7.30
2017-11-10T08:48:48.172Z,7.30
2017-11-10T08:51:16.040Z,7.30
2017-11-10T08:53:43.911Z,7.30
2017-11-10T08:56:11.775Z,7.30
2017-11-10T08:58:39.642Z,7.30
2017-11-10T09:01:07.513Z,7.20
2017-11-10T09:03:35.383Z,7.30
2017-11-10T09:06:03.243Z,7.30
2017-11-10T09:08:31.111Z,7.30
2017-11-10T09:10:58.979Z,7.40
2017-11-10T09:13:26.847Z,7.40
2017-11-10T09:15:54.713Z,7.40
2017-11-10T09:18:22.581Z,7.40
2017-11-10T09:20:50.453Z,7.40
2017-11-10T09:23:18.315Z,7.50
2017-11-10T09:25:46.284Z,7.50
2017-11-10T09:28:18.760Z,7.50
2017-11-10T09:31:02.295Z,7.50
2017-11-10T09:33:32.721Z,7.40
2017-11-10T09:36:19.226Z,7.40
2017-11-10T09:38:47.918Z,7.50
2017-11-10T09:41:33.496Z,7.50
2017-11-10T09:44:07.032Z,7.40
2017-11-10T09:46:35.785Z,7.40
2017-11-10T09:49:22.493Z,7.40
2017-11-10T09:52:11.045Z,7.40
2017-11-10T09:54:43.763Z,7.30
2017-11-10T09:57:18.152Z,7.30
2017-11-10T09:59:49.600Z,7.30
2017-11-10T10:02:32.321Z,7.30
2017-11-10T10:05:10.128Z,7.30
2017-11-10T10:07:55.089Z,7.30
2017-11-10T10:10:33.606Z,7.40
2017-11-10T10:13:06.182Z,7.40
2017-11-10T10:15:39.781Z,7.40
2017-11-10T10:18:23.418Z,7.30
2017-11-10T10:21:06.847Z,7.30
2017-11-10T10:23:34.717Z,7.30
2017-11-10T10:26:02.583Z,7.30
2017-11-10T10:28:30.453Z,7.30
2017-11-10T10:30:58.321Z,7.30
2017-11-10T10:33:26.185Z,7.30
2017-11-10T10:35:54.052Z,7.20
2017-11-10T10:38:21.929Z,7.20
2017-11-10T10:40:49.786Z,7.20
2017-11-10T10:43:17.670Z,7.30
2017-11-10T10:45:45.623Z,7.20
2017-11-10T10:48:13.490Z,7.20
2017-11-10T10:50:41.360Z,7.20
2017-11-10T10:53:09.225Z,7.20
2017-11-10T10:55:37.093Z,7.20
2017-11-10T10:58:04.960Z,7.20
2017-11-10T11:00:32.829Z,7.20
2017-11-10T11:03:00.694Z,7.20
2017-11-10T11:05:28.562Z,7.30
2017-11-10T11:07:56.437Z,7.30
2017-11-10T11:10:24.399Z,7.40
2017-11-10T11:12:52.265Z,7.40
2017-11-10T11:15:20.132Z,7.40
2017-11-10T11:17:48.000Z,7.40
2017-11-10T11:20:15.867Z,7.40
2017-11-10T11:22:43.743Z,7.40
2017-11-10T11:25:11.704Z,7.40
2017-11-10T11:27:39.574Z,7.50
2017-11-10T11:30:07.440Z,7.60
2017-11-10T11:32:35.307Z,7.60
2017-11-10T11:35:03.173Z,7.50
2017-11-10T11:37:31.042Z,7.50
2017-11-10T11:39:58.909Z,7.60
2017-11-10T11:42:26.776Z,7.60
2017-11-10T11:44:54.644Z,7.60
2017-11-10T11:47:22.512Z,7.60
2017-11-10T11:49:50.309Z,7.60
2017-11-10T11:52:18.962Z,7.60
2017-11-10T11:54:46.829Z,7.50
2017-11-10T11:57:14.696Z,7.60
2017-11-10T11:59:42.670Z,7.50
2017-11-10T12:02:10.537Z,7.50
2017-11-10T12:04:38.401Z,7.60
2017-11-10T12:07:06.267Z,7.60
2017-11-10T12:09:34.135Z,7.60
2017-11-10T12:12:02.002Z,7.60
2017-11-10T12:14:29.870Z,7.60
2017-11-10T12:16:57.737Z,7.60
2017-11-10T12:19:25.605Z,7.60
2017-11-10T12:21:53.476Z,7.60
2017-11-10T12:24:21.339Z,7.60
2017-11-10T12:26:49.207Z,7.60
2017-11-10T12:29:17.074Z,7.70
2017-11-10T12:31:44.944Z,7.60
2017-11-10T12:34:12.808Z,7.70
2017-11-10T12:36:40.676Z,7.70
2017-11-10T12:39:09.369Z,7.70
2017-11-10T12:41:37.229Z,7.70
2017-11-10T12:44:05.096Z,7.70
2017-11-10T12:46:32.965Z,7.70
2017-11-10T12:49:00.831Z,7.70
2017-11-10T12:51:28.698Z,7.70
2017-11-10T12:53:56.566Z,7.60
2017-11-10T12:56:24.364Z,7.60
2017-11-10T12:58:53.017Z,7.60
2017-11-10T13:01:20.885Z,7.60
2017-11-10T13:03:48.753Z,7.60
2017-11-10T13:06:17.439Z,7.70
2017-11-10T13:08:45.306Z,7.70
2017-11-10T13:11:13.174Z,7.70
2017-11-10T13:13:41.042Z,7.60
2017-11-10T13:16:08.908Z,7.70
2017-11-10T13:18:36.784Z,7.70
2017-11-10T13:21:04.650Z,7.70
2017-11-10T13:23:32.514Z,7.70
2017-11-10T13:26:00.383Z,7.70
2017-11-10T13:28:28.250Z,7.80
2017-11-10T13:30:56.117Z,7.70
2017-11-10T13:33:23.982Z,7.80
2017-11-10T13:35:51.849Z,7.90
2017-11-10T13:38:19.714Z,7.80
2017-11-10T13:40:47.583Z,7.80
2017-11-10T13:43:15.457Z,7.80
2017-11-10T13:45:43.318Z,7.80
2017-11-10T13:48:11.126Z,7.80
2017-11-10T13:50:38.959Z,7.80
2017-11-10T13:53:07.634Z,7.80
2017-11-10T13:55:35.502Z,7.70
2017-11-10T13:58:03.370Z,7.70
2017-11-10T14:00:31.237Z,7.80
2017-11-10T14:02:59.105Z,7.80
2017-11-10T14:05:26.971Z,7.80
2017-11-10T14:07:54.736Z,7.80
2017-11-10T14:10:22.604Z,7.90
2017-11-10T14:12:50.476Z,7.90
2017-11-10T14:15:18.339Z,8.00
2017-11-10T14:17:46.206Z,7.90
2017-11-10T14:20:14.073Z,8.00
2017-11-10T14:22:41.940Z,8.00
2017-11-10T14:25:09.807Z,8.00
2017-11-10T14:27:37.676Z,8.00
2017-11-10T14:30:05.540Z,8.00
2017-11-10T14:32:33.409Z,8.00
2017-11-10T14:35:01.276Z,8.00
2017-11-10T14:37:29.143Z,8.00
2017-11-10T14:39:57.012Z,8.00
2017-11-10T14:42:24.807Z,8.00
2017-11-10T14:44:53.363Z,8.00
2017-11-10T14:47:21.231Z,8.10
2017-11-10T14:49:49.096Z,8.10
2017-11-10T14:52:16.963Z,8.00
2017-11-10T14:54:44.829Z,8.10
2017-11-10T14:57:12.697Z,8.00
2017-11-10T14:59:40.568Z,8.10
2017-11-10T15:02:08.435Z,8.10
2017-11-10T15:04:36.339Z,8.10
2017-11-10T15:07:04.167Z,8.00
2017-11-10T15:09:32.035Z,8.10
2017-11-10T15:11:59.903Z,8.20
2017-11-10T15:14:27.769Z,8.20
2017-11-10T15:16:55.635Z,8.20
2017-11-10T15:19:23.721Z,8.20
2017-11-10T15:21:52.395Z,8.30
2017-11-10T15:24:20.262Z,8.30
2017-11-10T15:26:48.129Z,8.30
2017-11-10T15:29:15.996Z,8.40
2017-11-10T15:31:43.863Z,8.40
2017-11-10T15:34:11.731Z,8.40
2017-11-10T15:36:39.598Z,8.40
2017-11-10T15:39:07.464Z,8.50
2017-11-10T15:41:35.344Z,8.50
2017-11-10T15:44:03.199Z,8.50
2017-11-10T15:46:31.066Z,8.60
2017-11-10T15:48:58.934Z,8.60
2017-11-10T15:51:26.801Z,8.60
2017-11-10T15:53:54.668Z,8.60
2017-11-10T15:56:22.535Z,8.60
2017-11-10T15:58:50.404Z,8.60
2017-11-10T16:01:18.271Z,8.70
2017-11-10T16:03:46.138Z,8.70
2017-11-10T16:06:14.004Z,8.60
2017-11-10T16:08:41.871Z,8.60
2017-11-10T16:11:09.743Z,8.60
2017-11-10T16:13:37.607Z,8.70
2017-11-10T16:16:05.473Z,8.80
2017-11-10T16:18:33.342Z,8.80
2017-11-10T16:21:01.208Z,8.80
2017-11-10T16:23:29.076Z,8.80
2017-11-10T16:25:56.944Z,8.90
2017-11-10T16:28:24.740Z,8.90
2017-11-10T16:30:53.395Z,9.00
2017-11-10T16:33:21.208Z,8.90
2017-11-10T16:35:49.027Z,8.90
2017-11-10T16:38:16.900Z,8.90
2017-11-10T16:40:44.770Z,8.90
2017-11-10T16:43:12.630Z,8.80
2017-11-10T16:45:40.497Z,8.70
2017-11-10T16:48:08.368Z,8.70
2017-11-10T16:50:36.235Z,8.70
2017-11-10T16:53:04.100Z,8.60
2017-11-10T16:55:31.969Z,8.60
2017-11-10T16:57:59.835Z,8.60
2017-11-10T17:00:27.699Z,8.60
2017-11-10T17:02:55.567Z,8.70
2017-11-10T17:05:23.433Z,8.60
2017-11-10T17:07:51.302Z,8.70
2017-11-10T17:10:19.170Z,8.70
2017-11-10T17:12:47.037Z,8.70
2017-11-10T17:15:14.904Z,8.70
2017-11-10T17:17:42.771Z,8.80
2017-11-10T17:20:10.637Z,8.90
2017-11-10T17:22:38.506Z,8.90
2017-11-10T17:25:06.373Z,8.80
2017-11-10T17:27:34.239Z,8.90
2017-11-10T17:30:02.110Z,9.00
2017-11-10T17:32:29.974Z,9.00
2017-11-10T17:34:57.841Z,9.10
2017-11-10T17:37:25.709Z,9.10
2017-11-10T17:39:53.580Z,9.00
2017-11-10T17:42:21.451Z,9.00
2017-11-10T17:44:49.310Z,9.00
2017-11-10T17:47:17.179Z,9.00
2017-11-10T17:49:45.049Z,9.00
2017-11-10T17:52:13.020Z,9.00
2017-11-10T17:54:40.882Z,9.10
2017-11-10T17:57:08.751Z,9.10
2017-11-10T17:59:36.618Z,9.10
2017-11-10T18:02:04.587Z,9.10
2017-11-10T18:04:32.457Z,9.10
2017-11-10T18:07:00.322Z,9.20
2017-11-10T18:09:28.294Z,9.20
2017-11-10T18:11:56.159Z,9.20
2017-11-10T18:14:24.026Z,9.30
2017-11-10T18:16:51.895Z,9.30
2017-11-10T18:19:19.761Z,9.30
2017-11-10T18:21:47.628Z,9.30
2017-11-10T18:24:15.597Z,9.30
2017-11-10T18:26:43.464Z,9.40
2017-11-10T18:29:11.331Z,9.30
2017-11-10T18:31:39.238Z,9.30
2017-11-10T18:34:07.886Z,9.20
2017-11-10T18:36:35.754Z,9.20
2017-11-10T18:39:03.728Z,9.20
2017-11-10T18:41:31.591Z,9.10
2017-11-10T18:43:59.458Z,9.00
2017-11-10T18:46:27.326Z,8.90
2017-11-10T18:48:56.956Z,8.90
2017-11-10T18:51:24.903Z,8.80
2017-11-10T18:53:52.770Z,8.90
2017-11-10T18:56:20.638Z,8.80
2017-11-10T18:58:48.505Z,8.80
2017-11-10T19:01:16.371Z,8.90
2017-11-10T19:03:44.240Z,8.80
2017-11-10T19:06:12.107Z,8.90
2017-11-10T19:08:39.974Z,8.90
2017-11-10T19:11:07.842Z,8.90
2017-11-10T19:13:35.709Z,8.90
2017-11-10T19:16:03.625Z,9.00
2017-11-10T19:18:31.548Z,9.00
2017-11-10T19:20:59.412Z,9.00
2017-11-10T19:23:27.280Z,9.00
2017-11-10T19:25:55.148Z,9.00
2017-11-10T19:28:23.016Z,9.00
2017-11-10T19:30:50.883Z,9.00
2017-11-10T19:33:18.757Z,9.00
2017-11-10T19:35:46.617Z,9.00
2017-11-10T19:38:14.485Z,8.90
2017-11-10T19:40:42.352Z,8.90
2017-11-10T19:43:10.220Z,8.90
2017-11-10T19:45:38.087Z,8.80
2017-11-10T19:48:05.954Z,8.70
2017-11-10T19:50:33.821Z,8.60
2017-11-10T19:53:01.688Z,8.50
2017-11-10T19:55:29.554Z,8.40
2017-11-10T19:57:57.429Z,8.30
2017-11-10T20:00:25.301Z,8.10
2017-11-10T20:02:53.262Z,8.00
2017-11-10T20:05:21.129Z,7.80
2017-11-10T20:07:49.003Z,7.70
2017-11-10T20:10:16.865Z,7.60
2017-11-10T20:12:44.733Z,7.50
2017-11-10T20:15:12.598Z,7.40
2017-11-10T20:17:40.465Z,7.40
2017-11-10T20:20:08.353Z,7.40
2017-11-10T20:22:37.018Z,7.40
2017-11-10T20:25:04.885Z,7.40
2017-11-10T20:27:32.754Z,7.40
2017-11-10T20:30:00.620Z,7.40
2017-11-10T20:32:28.496Z,7.40
2017-11-10T20:34:56.457Z,7.40
2017-11-10T20:37:24.331Z,7.30
2017-11-10T20:39:52.191Z,7.30
2017-11-10T20:42:20.059Z,7.20
2017-11-10T20:44:47.926Z,7.20
2017-11-10T20:47:15.794Z,7.10
2017-11-10T20:49:43.660Z,7.10
2017-11-10T20:52:11.528Z,7.00
2017-11-10T20:54:39.401Z,6.90
2017-11-10T20:57:07.263Z,6.90
2017-11-10T20:59:35.130Z,6.90
2017-11-10T21:02:02.993Z,6.90
2017-11-10T21:04:30.865Z,6.90
2017-11-10T21:06:58.732Z,6.90
2017-11-10T21:09:26.599Z,6.80
2017-11-10T21:11:54.466Z,6.90
2017-11-10T21:14:22.335Z,6.80
2017-11-10T21:16:50.201Z,6.80
2017-11-10T21:19:18.067Z,6.70
2017-11-10T21:21:45.938Z,6.70
2017-11-10T21:24:13.803Z,6.70
2017-11-10T21:26:41.669Z,6.60
2017-11-10T21:29:09.537Z,6.60
2017-11-10T21:31:37.404Z,6.50
2017-11-10T21:34:05.375Z,6.50
2017-11-10T21:36:33.242Z,6.40
2017-11-10T21:39:01.110Z,6.30
2017-11-10T21:41:28.976Z,6.20
2017-11-10T21:43:56.845Z,6.20
2017-11-10T21:46:24.710Z,6.30
2017-11-10T21:48:52.579Z,6.30
2017-11-10T21:51:20.446Z,6.20
2017-11-10T21:53:48.314Z,6.20
2017-11-10T21:56:16.181Z,6.20
2017-11-10T21:58:44.081Z,6.20
2017-11-10T22:01:12.735Z,6.20
2017-11-10T22:03:40.603Z,6.20
2017-11-10T22:06:08.469Z,6.20
2017-11-10T22:08:36.336Z,6.20
2017-11-10T22:11:04.204Z,6.20
2017-11-10T22:13:32.071Z,6.20
2017-11-10T22:15:59.937Z,6.20
2017-11-10T22:18:27.806Z,6.20
2017-11-10T22:20:55.673Z,6.20
2017-11-10T22:23:23.540Z,6.20
2017-11-10T22:25:51.408Z,6.20
2017-11-10T22:28:19.275Z,6.20
2017-11-10T22:30:47.108Z,6.20
2017-11-10T22:33:14.907Z,6.10
2017-11-10T22:35:42.775Z,6.10
2017-11-10T22:38:10.642Z,6.10
2017-11-10T22:40:38.516Z,6.10
2017-11-10T22:43:06.377Z,6.10
2017-11-10T22:45:34.254Z,6.10
2017-11-10T22:48:02.111Z,6.10
2017-11-10T22:50:29.982Z,6.10
2017-11-10T22:52:57.949Z,6.00
2017-11-10T22:55:25.816Z,6.00
2017-11-10T22:57:53.686Z,5.90
2017-11-10T23:00:21.552Z,5.90
2017-11-10T23:02:49.417Z,5.90
2017-11-10T23:05:17.285Z,5.90
2017-11-10T23:07:45.154Z,5.90
2017-11-10T23:10:13.020Z,5.90
2017-11-10T23:12:40.886Z,5.90
2017-11-10T23:15:08.761Z,5.80
2017-11-10T23:17:36.622Z,5.80
2017-11-10T23:20:04.501Z,5.70
2017-11-10T23:22:33.280Z,5.70
2017-11-10T23:25:01.146Z,5.60
2017-11-10T23:27:29.017Z,5.50
2017-11-10T23:29:56.906Z,5.50
2017-11-10T23:32:25.571Z,5.50
2017-11-10T23:34:53.438Z,5.40
2017-11-10T23:37:21.301Z,5.40
2017-11-10T23:39:49.168Z,5.40
2017-11-10T23:42:17.034Z,5.40
2017-11-10T23:44:44.902Z,5.40
2017-11-10T23:47:12.770Z,5.40
2017-11-10T23:49:40.641Z,5.40
2017-11-10T23:52:08.506Z,5.40
2017-11-10T23:54:36.372Z,5.40
2017-11-10T23:57:04.239Z,5.30
2017-11-10T23:59:32.106Z,5.30
